sensor_id;sensor_type;location;lat;lon;timestamp;temperature;humidity
8248;DHT22;4164;49.844;8.830;2023-02-16T00:00:19;1.30;99.90
8248;DHT22;4164;49.844;8.830;2023-02-16T00:02:45;1.20;99.90
8248;DHT22;4164;49.844;8.830;2023-02-16T00:07:47;1.50;99.90
8248;DHT22;4164;49.844;8.830;2023-02-16T00:10:12;1.40;99.90
8248;DHT22;4164;49.844;8.830;2023-02-16T00:12:38;1.50;99.90
8248;DHT22;4164;49.844;8.830;2023-02-16T00:15:22;1.50;99.90
8248;DHT22;4164;49.844;8.830;2023-02-16T00:17:47;1.50;99.90
8248;DHT22;4164;49.844;8.830;2023-02-16T00:20:14;1.40;99.90
8248;DHT22;4164;49.844;8.830;2023-02-16T00:22:40;1.40;99.90
8248;DHT22;4164;49.844;8.830;2023-02-16T00:25:06;1.40;99.90
8248;DHT22;4164;49.844;8.830;2023-02-16T00:27:33;1.40;99.90
8248;DHT22;4164;49.844;8.830;2023-02-16T00:29:59;1.60;99.90
8248;DHT22;4164;49.844;8.830;2023-02-16T00:32:24;1.40;99.90
8248;DHT22;4164;49.844;8.830;2023-02-16T00:34:50;1.50;99.90
8248;DHT22;4164;49.844;8.830;2023-02-16T00:37:15;1.50;99.90
8248;DHT22;4164;49.844;8.830;2023-02-16T00:39:42;1.50;99.90
8248;DHT22;4164;49.844;8.830;2023-02-16T00:42:21;1.40;99.90
8248;DHT22;4164;49.844;8.830;2023-02-16T00:44:52;1.30;99.90
8248;DHT22;4164;49.844;8.830;2023-02-16T00:47:39;1.30;99.90
8248;DHT22;4164;49.844;8.830;2023-02-16T00:50:19;1.40;99.90
8248;DHT22;4164;49.844;8.830;2023-02-16T00:52:48;1.50;99.90
8248;DHT22;4164;49.844;8.830;2023-02-16T00:55:22;1.40;99.90
8248;DHT22;4164;49.844;8.830;2023-02-16T01:00:46;1.20;99.90
8248;DHT22;4164;49.844;8.830;2023-02-16T01:03:16;1.40;99.90
8248;DHT22;4164;49.844;8.830;2023-02-16T01:05:42;1.40;99.90
8248;DHT22;4164;49.844;8.830;2023-02-16T01:08:10;1.40;99.90
8248;DHT22;4164;49.844;8.830;2023-02-16T01:10:54;1.40;99.90
8248;DHT22;4164;49.844;8.830;2023-02-16T01:13:38;1.30;99.90
8248;DHT22;4164;49.844;8.830;2023-02-16T01:16:14;1.40;99.90
8248;DHT22;4164;49.844;8.830;2023-02-16T01:18:40;1.20;99.90
8248;DHT22;4164;49.844;8.830;2023-02-16T01:21:05;1.20;99.90
8248;DHT22;4164;49.844;8.830;2023-02-16T01:23:31;1.20;99.90
8248;DHT22;4164;49.844;8.830;2023-02-16T01:25:57;1.20;99.90
8248;DHT22;4164;49.844;8.830;2023-02-16T01:28:24;1.20;99.90
8248;DHT22;4164;49.844;8.830;2023-02-16T01:30:51;1.40;99.90
8248;DHT22;4164;49.844;8.830;2023-02-16T01:33:17;1.50;99.90
8248;DHT22;4164;49.844;8.830;2023-02-16T01:35:43;1.40;99.90
8248;DHT22;4164;49.844;8.830;2023-02-16T01:38:17;1.20;99.90
8248;DHT22;4164;49.844;8.830;2023-02-16T01:40:54;1.20;99.90
8248;DHT22;4164;49.844;8.830;2023-02-16T01:43:25;1.00;99.90
8248;DHT22;4164;49.844;8.830;2023-02-16T01:45:58;0.90;99.90
8248;DHT22;4164;49.844;8.830;2023-02-16T01:48:29;1.00;99.90
8248;DHT22;4164;49.844;8.830;2023-02-16T01:51:06;1.00;99.90
8248;DHT22;4164;49.844;8.830;2023-02-16T01:53:39;1.00;99.90
8248;DHT22;4164;49.844;8.830;2023-02-16T01:59:02;1.00;99.90
8248;DHT22;4164;49.844;8.830;2023-02-16T02:01:41;0.90;99.90
8248;DHT22;4164;49.844;8.830;2023-02-16T02:04:12;1.00;99.90
8248;DHT22;4164;49.844;8.830;2023-02-16T02:06:56;1.10;99.90
8248;DHT22;4164;49.844;8.830;2023-02-16T02:09:28;1.00;99.90
8248;DHT22;4164;49.844;8.830;2023-02-16T02:14:53;0.70;99.90
8248;DHT22;4164;49.844;8.830;2023-02-16T02:17:20;0.80;99.90
8248;DHT22;4164;49.844;8.830;2023-02-16T02:20:00;0.70;99.90
8248;DHT22;4164;49.844;8.830;2023-02-16T02:22:38;0.90;99.90
8248;DHT22;4164;49.844;8.830;2023-02-16T02:25:58;1.00;99.90
8248;DHT22;4164;49.844;8.830;2023-02-16T02:29:06;1.10;99.90
8248;DHT22;4164;49.844;8.830;2023-02-16T02:34:27;1.20;99.90
8248;DHT22;4164;49.844;8.830;2023-02-16T02:37:27;1.30;99.90
8248;DHT22;4164;49.844;8.830;2023-02-16T02:45:41;0.90;99.90
8248;DHT22;4164;49.844;8.830;2023-02-16T02:48:08;0.90;99.90
8248;DHT22;4164;49.844;8.830;2023-02-16T02:50:53;0.80;99.90
8248;DHT22;4164;49.844;8.830;2023-02-16T02:53:50;0.70;99.90
8248;DHT22;4164;49.844;8.830;2023-02-16T02:56:38;0.70;99.90
8248;DHT22;4164;49.844;8.830;2023-02-16T02:59:24;0.70;99.90
8248;DHT22;4164;49.844;8.830;2023-02-16T03:02:12;0.80;99.90
8248;DHT22;4164;49.844;8.830;2023-02-16T03:04:38;0.80;99.90
8248;DHT22;4164;49.844;8.830;2023-02-16T03:07:04;0.80;99.90
8248;DHT22;4164;49.844;8.830;2023-02-16T03:09:30;0.60;99.90
8248;DHT22;4164;49.844;8.830;2023-02-16T03:11:56;0.60;99.90
8248;DHT22;4164;49.844;8.830;2023-02-16T03:14:49;0.50;99.90
8248;DHT22;4164;49.844;8.830;2023-02-16T03:17:17;0.50;99.90
8248;DHT22;4164;49.844;8.830;2023-02-16T03:20:06;0.40;99.90
8248;DHT22;4164;49.844;8.830;2023-02-16T03:22:51;0.20;99.90
8248;DHT22;4164;49.844;8.830;2023-02-16T03:25:38;0.40;99.90
8248;DHT22;4164;49.844;8.830;2023-02-16T03:28:24;0.30;99.90
8248;DHT22;4164;49.844;8.830;2023-02-16T03:31:12;0.30;99.90
8248;DHT22;4164;49.844;8.830;2023-02-16T03:33:39;0.30;99.90
8248;DHT22;4164;49.844;8.830;2023-02-16T03:36:06;0.30;99.90
8248;DHT22;4164;49.844;8.830;2023-02-16T03:38:32;0.20;99.90
8248;DHT22;4164;49.844;8.830;2023-02-16T03:40:58;0.30;99.90
8248;DHT22;4164;49.844;8.830;2023-02-16T03:43:25;0.40;99.90
8248;DHT22;4164;49.844;8.830;2023-02-16T03:45:51;0.50;99.90
8248;DHT22;4164;49.844;8.830;2023-02-16T03:48:16;0.60;99.90
8248;DHT22;4164;49.844;8.830;2023-02-16T03:50:42;0.60;99.90
8248;DHT22;4164;49.844;8.830;2023-02-16T03:53:08;0.60;99.90
8248;DHT22;4164;49.844;8.830;2023-02-16T03:55:45;0.60;99.90
8248;DHT22;4164;49.844;8.830;2023-02-16T03:58:13;0.30;99.90
8248;DHT22;4164;49.844;8.830;2023-02-16T04:00:39;0.10;99.90
8248;DHT22;4164;49.844;8.830;2023-02-16T04:03:05;0.20;99.90
8248;DHT22;4164;49.844;8.830;2023-02-16T04:05:32;0.30;99.90
8248;DHT22;4164;49.844;8.830;2023-02-16T04:07:57;0.30;99.90
8248;DHT22;4164;49.844;8.830;2023-02-16T04:10:24;0.30;99.90
8248;DHT22;4164;49.844;8.830;2023-02-16T04:12:52;0.30;99.90
8248;DHT22;4164;49.844;8.830;2023-02-16T04:15:20;0.30;99.90
8248;DHT22;4164;49.844;8.830;2023-02-16T04:17:46;0.40;99.90
8248;DHT22;4164;49.844;8.830;2023-02-16T04:20:15;0.40;99.90
8248;DHT22;4164;49.844;8.830;2023-02-16T04:22:42;0.50;99.90
8248;DHT22;4164;49.844;8.830;2023-02-16T04:25:08;0.60;99.90
8248;DHT22;4164;49.844;8.830;2023-02-16T04:27:35;0.50;99.90
8248;DHT22;4164;49.844;8.830;2023-02-16T04:30:00;0.40;99.90
8248;DHT22;4164;49.844;8.830;2023-02-16T04:32:26;0.50;99.90
8248;DHT22;4164;49.844;8.830;2023-02-16T04:34:52;0.40;99.90
8248;DHT22;4164;49.844;8.830;2023-02-16T04:37:17;0.20;99.90
8248;DHT22;4164;49.844;8.830;2023-02-16T04:39:43;0.20;99.90
8248;DHT22;4164;49.844;8.830;2023-02-16T04:42:08;0.10;99.90
8248;DHT22;4164;49.844;8.830;2023-02-16T04:44:34;0.10;99.90
8248;DHT22;4164;49.844;8.830;2023-02-16T04:46:59;-0.10;99.90
8248;DHT22;4164;49.844;8.830;2023-02-16T04:49:25;-0.10;99.90
8248;DHT22;4164;49.844;8.830;2023-02-16T04:51:50;0.00;99.90
8248;DHT22;4164;49.844;8.830;2023-02-16T04:54:16;0.10;99.90
8248;DHT22;4164;49.844;8.830;2023-02-16T04:56:43;0.20;99.90
8248;DHT22;4164;49.844;8.830;2023-02-16T04:59:09;0.20;99.90
8248;DHT22;4164;49.844;8.830;2023-02-16T05:01:35;0.20;99.90
8248;DHT22;4164;49.844;8.830;2023-02-16T05:04:00;0.30;99.90
8248;DHT22;4164;49.844;8.830;2023-02-16T05:06:26;0.50;99.90
8248;DHT22;4164;49.844;8.830;2023-02-16T05:08:51;0.50;99.90
8248;DHT22;4164;49.844;8.830;2023-02-16T05:11:17;0.70;99.90
8248;DHT22;4164;49.844;8.830;2023-02-16T05:14:01;0.60;99.90
8248;DHT22;4164;49.844;8.830;2023-02-16T05:16:45;0.40;99.90
8248;DHT22;4164;49.844;8.830;2023-02-16T05:19:11;0.40;99.90
8248;DHT22;4164;49.844;8.830;2023-02-16T05:21:37;0.40;99.90
8248;DHT22;4164;49.844;8.830;2023-02-16T05:24:05;0.40;99.90
8248;DHT22;4164;49.844;8.830;2023-02-16T05:26:32;0.20;99.90
8248;DHT22;4164;49.844;8.830;2023-02-16T05:28:59;0.40;99.90
8248;DHT22;4164;49.844;8.830;2023-02-16T05:31:25;0.50;99.90
8248;DHT22;4164;49.844;8.830;2023-02-16T05:33:51;0.40;99.90
8248;DHT22;4164;49.844;8.830;2023-02-16T05:36:17;0.10;99.90
8248;DHT22;4164;49.844;8.830;2023-02-16T05:38:43;0.00;99.90
8248;DHT22;4164;49.844;8.830;2023-02-16T05:41:08;0.10;99.90
8248;DHT22;4164;49.844;8.830;2023-02-16T05:43:34;0.00;99.90
8248;DHT22;4164;49.844;8.830;2023-02-16T05:46:05;-0.10;99.90
8248;DHT22;4164;49.844;8.830;2023-02-16T05:48:30;0.10;99.90
8248;DHT22;4164;49.844;8.830;2023-02-16T05:50:56;0.00;99.90
8248;DHT22;4164;49.844;8.830;2023-02-16T05:53:21;0.30;99.90
8248;DHT22;4164;49.844;8.830;2023-02-16T05:55:47;0.20;99.90
8248;DHT22;4164;49.844;8.830;2023-02-16T05:58:12;0.40;99.90
8248;DHT22;4164;49.844;8.830;2023-02-16T06:00:38;0.30;99.90
8248;DHT22;4164;49.844;8.830;2023-02-16T06:03:04;0.20;99.90
8248;DHT22;4164;49.844;8.830;2023-02-16T06:05:29;0.30;99.90
8248;DHT22;4164;49.844;8.830;2023-02-16T06:07:55;0.10;99.90
8248;DHT22;4164;49.844;8.830;2023-02-16T06:10:20;-0.10;99.90
8248;DHT22;4164;49.844;8.830;2023-02-16T06:12:46;-0.20;99.90
8248;DHT22;4164;49.844;8.830;2023-02-16T06:15:11;0.00;99.90
8248;DHT22;4164;49.844;8.830;2023-02-16T06:17:37;0.00;99.90
8248;DHT22;4164;49.844;8.830;2023-02-16T06:20:03;-0.10;99.90
8248;DHT22;4164;49.844;8.830;2023-02-16T06:22:29;-0.10;99.90
8248;DHT22;4164;49.844;8.830;2023-02-16T06:24:55;-0.10;99.90
8248;DHT22;4164;49.844;8.830;2023-02-16T06:27:20;0.00;99.90
8248;DHT22;4164;49.844;8.830;2023-02-16T06:29:46;0.20;99.90
8248;DHT22;4164;49.844;8.830;2023-02-16T06:32:11;0.10;99.90
8248;DHT22;4164;49.844;8.830;2023-02-16T06:34:37;-0.10;99.90
8248;DHT22;4164;49.844;8.830;2023-02-16T06:37:02;-0.30;99.90
8248;DHT22;4164;49.844;8.830;2023-02-16T06:39:28;-0.30;99.90
8248;DHT22;4164;49.844;8.830;2023-02-16T06:41:54;-0.30;99.90
8248;DHT22;4164;49.844;8.830;2023-02-16T06:44:19;-0.20;99.90
8248;DHT22;4164;49.844;8.830;2023-02-16T06:46:48;-0.20;99.90
8248;DHT22;4164;49.844;8.830;2023-02-16T06:49:17;-0.30;99.90
8248;DHT22;4164;49.844;8.830;2023-02-16T06:51:44;-0.20;99.90
8248;DHT22;4164;49.844;8.830;2023-02-16T06:54:09;-0.30;99.90
8248;DHT22;4164;49.844;8.830;2023-02-16T06:56:35;-0.20;99.90
8248;DHT22;4164;49.844;8.830;2023-02-16T06:59:01;-0.30;99.90
8248;DHT22;4164;49.844;8.830;2023-02-16T07:01:27;-0.30;99.90
8248;DHT22;4164;49.844;8.830;2023-02-16T07:03:54;-0.30;99.90
8248;DHT22;4164;49.844;8.830;2023-02-16T07:06:21;-0.20;99.90
8248;DHT22;4164;49.844;8.830;2023-02-16T07:08:47;0.10;99.90
8248;DHT22;4164;49.844;8.830;2023-02-16T07:11:12;0.20;99.90
8248;DHT22;4164;49.844;8.830;2023-02-16T07:13:38;0.10;99.90
8248;DHT22;4164;49.844;8.830;2023-02-16T07:16:05;0.20;99.90
8248;DHT22;4164;49.844;8.830;2023-02-16T07:18:31;0.10;99.90
8248;DHT22;4164;49.844;8.830;2023-02-16T07:20:57;0.10;99.90
8248;DHT22;4164;49.844;8.830;2023-02-16T07:23:24;0.00;99.90
8248;DHT22;4164;49.844;8.830;2023-02-16T07:25:50;0.10;99.90
8248;DHT22;4164;49.844;8.830;2023-02-16T07:28:15;0.20;99.90
8248;DHT22;4164;49.844;8.830;2023-02-16T07:30:42;0.20;99.90
8248;DHT22;4164;49.844;8.830;2023-02-16T07:33:08;0.20;99.90
8248;DHT22;4164;49.844;8.830;2023-02-16T07:35:35;0.10;99.90
8248;DHT22;4164;49.844;8.830;2023-02-16T07:38:00;0.10;99.90
8248;DHT22;4164;49.844;8.830;2023-02-16T07:40:26;0.00;99.90
8248;DHT22;4164;49.844;8.830;2023-02-16T07:42:52;0.00;99.90
8248;DHT22;4164;49.844;8.830;2023-02-16T07:45:20;0.20;99.90
8248;DHT22;4164;49.844;8.830;2023-02-16T07:47:46;0.20;99.90
8248;DHT22;4164;49.844;8.830;2023-02-16T07:50:11;0.40;99.90
8248;DHT22;4164;49.844;8.830;2023-02-16T07:52:37;0.50;99.90
8248;DHT22;4164;49.844;8.830;2023-02-16T07:55:04;0.40;99.90
8248;DHT22;4164;49.844;8.830;2023-02-16T07:57:29;0.20;99.90
8248;DHT22;4164;49.844;8.830;2023-02-16T07:59:55;0.50;99.90
8248;DHT22;4164;49.844;8.830;2023-02-16T08:02:22;0.60;99.90
8248;DHT22;4164;49.844;8.830;2023-02-16T08:04:48;0.70;99.90
8248;DHT22;4164;49.844;8.830;2023-02-16T08:07:15;0.70;99.90
8248;DHT22;4164;49.844;8.830;2023-02-16T08:09:41;0.80;99.90
8248;DHT22;4164;49.844;8.830;2023-02-16T08:12:11;0.70;99.90
8248;DHT22;4164;49.844;8.830;2023-02-16T08:14:37;1.00;99.90
8248;DHT22;4164;49.844;8.830;2023-02-16T08:17:06;1.00;99.90
8248;DHT22;4164;49.844;8.830;2023-02-16T08:19:32;1.10;99.90
8248;DHT22;4164;49.844;8.830;2023-02-16T08:21:59;1.20;99.90
8248;DHT22;4164;49.844;8.830;2023-02-16T08:24:27;1.10;99.90
8248;DHT22;4164;49.844;8.830;2023-02-16T08:26:53;1.20;99.90
8248;DHT22;4164;49.844;8.830;2023-02-16T08:29:21;1.40;99.90
8248;DHT22;4164;49.844;8.830;2023-02-16T08:31:47;1.40;99.90
8248;DHT22;4164;49.844;8.830;2023-02-16T08:34:15;1.20;99.90
8248;DHT22;4164;49.844;8.830;2023-02-16T08:36:42;1.10;99.90
8248;DHT22;4164;49.844;8.830;2023-02-16T08:39:13;1.00;99.90
8248;DHT22;4164;49.844;8.830;2023-02-16T08:41:39;0.60;99.90
8248;DHT22;4164;49.844;8.830;2023-02-16T08:44:06;0.50;99.90
8248;DHT22;4164;49.844;8.830;2023-02-16T08:46:33;0.60;99.90
8248;DHT22;4164;49.844;8.830;2023-02-16T08:49:00;0.60;99.90
8248;DHT22;4164;49.844;8.830;2023-02-16T08:51:28;0.50;99.90
8248;DHT22;4164;49.844;8.830;2023-02-16T08:53:56;0.90;99.90
8248;DHT22;4164;49.844;8.830;2023-02-16T08:56:22;0.80;99.90
8248;DHT22;4164;49.844;8.830;2023-02-16T08:58:48;1.00;99.90
8248;DHT22;4164;49.844;8.830;2023-02-16T09:01:14;1.10;99.90
8248;DHT22;4164;49.844;8.830;2023-02-16T09:03:40;1.30;99.90
8248;DHT22;4164;49.844;8.830;2023-02-16T09:06:09;1.50;99.90
8248;DHT22;4164;49.844;8.830;2023-02-16T09:08:36;1.60;99.90
8248;DHT22;4164;49.844;8.830;2023-02-16T09:11:03;1.60;99.90
8248;DHT22;4164;49.844;8.830;2023-02-16T09:13:29;1.70;99.90
8248;DHT22;4164;49.844;8.830;2023-02-16T09:15:59;2.00;99.90
8248;DHT22;4164;49.844;8.830;2023-02-16T09:18:25;1.80;99.90
8248;DHT22;4164;49.844;8.830;2023-02-16T09:20:50;1.40;99.90
8248;DHT22;4164;49.844;8.830;2023-02-16T09:23:16;1.40;99.90
8248;DHT22;4164;49.844;8.830;2023-02-16T09:25:41;1.60;99.90
8248;DHT22;4164;49.844;8.830;2023-02-16T09:28:07;1.40;99.90
8248;DHT22;4164;49.844;8.830;2023-02-16T09:30:38;1.90;99.90
8248;DHT22;4164;49.844;8.830;2023-02-16T09:33:04;1.90;99.90
8248;DHT22;4164;49.844;8.830;2023-02-16T09:35:29;2.00;99.90
8248;DHT22;4164;49.844;8.830;2023-02-16T09:37:56;2.30;99.90
8248;DHT22;4164;49.844;8.830;2023-02-16T09:40:22;2.30;99.90
8248;DHT22;4164;49.844;8.830;2023-02-16T09:43:21;2.50;99.90
8248;DHT22;4164;49.844;8.830;2023-02-16T09:45:51;2.40;99.90
8248;DHT22;4164;49.844;8.830;2023-02-16T09:48:37;2.20;99.90
8248;DHT22;4164;49.844;8.830;2023-02-16T09:51:07;2.20;99.90
8248;DHT22;4164;49.844;8.830;2023-02-16T09:53:39;2.50;99.90
8248;DHT22;4164;49.844;8.830;2023-02-16T09:59:07;2.70;99.90
8248;DHT22;4164;49.844;8.830;2023-02-16T10:04:27;2.80;99.90
8248;DHT22;4164;49.844;8.830;2023-02-16T10:09:35;3.40;99.90
8248;DHT22;4164;49.844;8.830;2023-02-16T10:12:06;3.20;99.90
8248;DHT22;4164;49.844;8.830;2023-02-16T10:14:40;3.30;99.90
8248;DHT22;4164;49.844;8.830;2023-02-16T10:20:11;3.50;99.90
8248;DHT22;4164;49.844;8.830;2023-02-16T10:22:57;3.60;99.90
8248;DHT22;4164;49.844;8.830;2023-02-16T10:25:42;3.80;99.90
8248;DHT22;4164;49.844;8.830;2023-02-16T10:28:25;4.00;99.90
8248;DHT22;4164;49.844;8.830;2023-02-16T10:41:38;4.10;99.90
8248;DHT22;4164;49.844;8.830;2023-02-16T10:44:21;4.30;99.90
8248;DHT22;4164;49.844;8.830;2023-02-16T10:46:55;4.80;99.90
8248;DHT22;4164;49.844;8.830;2023-02-16T10:49:23;4.40;99.90
8248;DHT22;4164;49.844;8.830;2023-02-16T10:51:51;4.20;99.90
8248;DHT22;4164;49.844;8.830;2023-02-16T10:54:31;4.60;99.90
8248;DHT22;4164;49.844;8.830;2023-02-16T10:57:02;4.60;99.90
8248;DHT22;4164;49.844;8.830;2023-02-16T10:59:43;5.20;99.90
8248;DHT22;4164;49.844;8.830;2023-02-16T11:02:36;5.40;99.90
8248;DHT22;4164;49.844;8.830;2023-02-16T11:05:00;5.30;99.90
8248;DHT22;4164;49.844;8.830;2023-02-16T11:07:28;5.40;99.90
8248;DHT22;4164;49.844;8.830;2023-02-16T11:09:57;5.00;99.90
8248;DHT22;4164;49.844;8.830;2023-02-16T11:12:41;5.20;99.90
8248;DHT22;4164;49.844;8.830;2023-02-16T11:20:26;5.00;99.90
8248;DHT22;4164;49.844;8.830;2023-02-16T11:22:53;5.10;99.90
8248;DHT22;4164;49.844;8.830;2023-02-16T11:25:37;5.00;99.90
8248;DHT22;4164;49.844;8.830;2023-02-16T11:28:02;5.10;99.90
8248;DHT22;4164;49.844;8.830;2023-02-16T11:30:33;5.20;99.90
8248;DHT22;4164;49.844;8.830;2023-02-16T11:33:01;5.30;99.90
8248;DHT22;4164;49.844;8.830;2023-02-16T11:35:30;5.60;99.90
8248;DHT22;4164;49.844;8.830;2023-02-16T11:37:57;6.40;99.90
8248;DHT22;4164;49.844;8.830;2023-02-16T11:40:32;7.40;99.90
8248;DHT22;4164;49.844;8.830;2023-02-16T11:42:59;7.50;99.90
8248;DHT22;4164;49.844;8.830;2023-02-16T11:45:31;7.00;99.90
8248;DHT22;4164;49.844;8.830;2023-02-16T11:48:00;6.60;99.90
8248;DHT22;4164;49.844;8.830;2023-02-16T11:50:33;6.40;99.90
8248;DHT22;4164;49.844;8.830;2023-02-16T11:55:42;6.30;99.90
8248;DHT22;4164;49.844;8.830;2023-02-16T11:58:25;6.30;99.90
8248;DHT22;4164;49.844;8.830;2023-02-16T12:00:58;6.30;99.90
8248;DHT22;4164;49.844;8.830;2023-02-16T12:03:53;6.00;99.90
8248;DHT22;4164;49.844;8.830;2023-02-16T12:09:38;6.60;99.90
8248;DHT22;4164;49.844;8.830;2023-02-16T12:12:16;7.00;99.90
8248;DHT22;4164;49.844;8.830;2023-02-16T12:15:03;6.90;99.90
8248;DHT22;4164;49.844;8.830;2023-02-16T12:26:22;9.40;99.90
8248;DHT22;4164;49.844;8.830;2023-02-16T12:28:59;9.20;99.90
8248;DHT22;4164;49.844;8.830;2023-02-16T12:45:12;8.00;99.90
8248;DHT22;4164;49.844;8.830;2023-02-16T12:47:53;8.80;99.90
8248;DHT22;4164;49.844;8.830;2023-02-16T12:50:26;9.40;99.90
8248;DHT22;4164;49.844;8.830;2023-02-16T12:53:14;10.00;99.90
8248;DHT22;4164;49.844;8.830;2023-02-16T12:55:51;11.40;99.90
8248;DHT22;4164;49.844;8.830;2023-02-16T13:00:54;14.80;99.90
8248;DHT22;4164;49.844;8.830;2023-02-16T13:11:38;16.10;96.60
8248;DHT22;4164;49.844;8.830;2023-02-16T13:14:20;14.60;97.70
8248;DHT22;4164;49.844;8.830;2023-02-16T13:19:19;14.60;97.30
8248;DHT22;4164;49.844;8.830;2023-02-16T13:24:52;13.40;99.50
8248;DHT22;4164;49.844;8.830;2023-02-16T13:30:32;11.60;99.90
8248;DHT22;4164;49.844;8.830;2023-02-16T13:33:22;11.00;99.90
8248;DHT22;4164;49.844;8.830;2023-02-16T13:41:31;9.30;99.90
8248;DHT22;4164;49.844;8.830;2023-02-16T13:44:33;9.20;99.90
8248;DHT22;4164;49.844;8.830;2023-02-16T13:47:01;9.20;99.90
8248;DHT22;4164;49.844;8.830;2023-02-16T13:49:35;8.80;99.90
8248;DHT22;4164;49.844;8.830;2023-02-16T13:52:05;8.70;99.90
8248;DHT22;4164;49.844;8.830;2023-02-16T13:54:35;8.70;99.90
8248;DHT22;4164;49.844;8.830;2023-02-16T13:57:03;8.90;99.90
8248;DHT22;4164;49.844;8.830;2023-02-16T14:01:55;8.50;99.90
8248;DHT22;4164;49.844;8.830;2023-02-16T14:07:34;8.10;99.90
8248;DHT22;4164;49.844;8.830;2023-02-16T14:22:18;7.60;99.90
8248;DHT22;4164;49.844;8.830;2023-02-16T14:24:52;7.60;99.90
8248;DHT22;4164;49.844;8.830;2023-02-16T14:27:44;7.60;99.90
8248;DHT22;4164;49.844;8.830;2023-02-16T14:38:44;7.70;99.90
8248;DHT22;4164;49.844;8.830;2023-02-16T14:41:14;7.70;99.90
8248;DHT22;4164;49.844;8.830;2023-02-16T14:43:49;7.80;99.90
8248;DHT22;4164;49.844;8.830;2023-02-16T14:46:47;8.00;99.90
8248;DHT22;4164;49.844;8.830;2023-02-16T14:49:43;8.20;99.90
8248;DHT22;4164;49.844;8.830;2023-02-16T15:03:14;8.60;99.90
8248;DHT22;4164;49.844;8.830;2023-02-16T15:05:40;8.40;99.90
8248;DHT22;4164;49.844;8.830;2023-02-16T15:08:17;8.40;99.90
8248;DHT22;4164;49.844;8.830;2023-02-16T15:10:44;8.60;99.90
8248;DHT22;4164;49.844;8.830;2023-02-16T15:13:25;8.60;99.90
8248;DHT22;4164;49.844;8.830;2023-02-16T15:15:53;8.70;99.90
8248;DHT22;4164;49.844;8.830;2023-02-16T15:18:26;8.70;99.90
8248;DHT22;4164;49.844;8.830;2023-02-16T15:20:54;8.50;99.90
8248;DHT22;4164;49.844;8.830;2023-02-16T15:23:27;8.60;99.90
8248;DHT22;4164;49.844;8.830;2023-02-16T15:25:58;8.40;99.90
8248;DHT22;4164;49.844;8.830;2023-02-16T15:28:29;8.40;99.90
8248;DHT22;4164;49.844;8.830;2023-02-16T15:31:06;8.30;99.90
8248;DHT22;4164;49.844;8.830;2023-02-16T15:33:42;8.50;99.90
8248;DHT22;4164;49.844;8.830;2023-02-16T15:36:13;8.80;99.90
8248;DHT22;4164;49.844;8.830;2023-02-16T15:41:25;8.70;99.90
8248;DHT22;4164;49.844;8.830;2023-02-16T15:43:51;8.60;99.90
8248;DHT22;4164;49.844;8.830;2023-02-16T15:46:37;8.50;99.90
8248;DHT22;4164;49.844;8.830;2023-02-16T15:49:13;8.40;99.90
8248;DHT22;4164;49.844;8.830;2023-02-16T15:51:40;8.40;99.90
8248;DHT22;4164;49.844;8.830;2023-02-16T15:54:22;8.30;99.90
8248;DHT22;4164;49.844;8.830;2023-02-16T15:56:49;8.30;99.90
8248;DHT22;4164;49.844;8.830;2023-02-16T15:59:27;8.10;99.90
8248;DHT22;4164;49.844;8.830;2023-02-16T16:04:27;7.80;99.90
8248;DHT22;4164;49.844;8.830;2023-02-16T16:06:54;7.90;99.90
8248;DHT22;4164;49.844;8.830;2023-02-16T16:09:26;7.80;99.90
8248;DHT22;4164;49.844;8.830;2023-02-16T16:11:56;7.90;99.90
8248;DHT22;4164;49.844;8.830;2023-02-16T16:14:23;7.80;99.90
8248;DHT22;4164;49.844;8.830;2023-02-16T16:16:50;7.80;99.90
8248;DHT22;4164;49.844;8.830;2023-02-16T16:19:24;7.80;99.90
8248;DHT22;4164;49.844;8.830;2023-02-16T16:21:55;7.80;99.90
8248;DHT22;4164;49.844;8.830;2023-02-16T16:24:35;7.80;99.90
8248;DHT22;4164;49.844;8.830;2023-02-16T16:27:08;7.70;99.90
8248;DHT22;4164;49.844;8.830;2023-02-16T16:32:04;7.70;99.90
8248;DHT22;4164;49.844;8.830;2023-02-16T16:34:34;7.80;99.90
8248;DHT22;4164;49.844;8.830;2023-02-16T16:37:01;7.70;99.90
8248;DHT22;4164;49.844;8.830;2023-02-16T16:39:35;7.60;99.90
8248;DHT22;4164;49.844;8.830;2023-02-16T16:42:21;7.40;99.90
8248;DHT22;4164;49.844;8.830;2023-02-16T16:47:30;7.30;99.90
8248;DHT22;4164;49.844;8.830;2023-02-16T16:52:46;7.60;99.90
8248;DHT22;4164;49.844;8.830;2023-02-16T16:58:03;7.50;99.90
8248;DHT22;4164;49.844;8.830;2023-02-16T17:00:31;7.30;99.90
8248;DHT22;4164;49.844;8.830;2023-02-16T17:02:59;7.20;99.90
8248;DHT22;4164;49.844;8.830;2023-02-16T17:05:25;7.20;99.90
8248;DHT22;4164;49.844;8.830;2023-02-16T17:07:51;7.30;99.90
8248;DHT22;4164;49.844;8.830;2023-02-16T17:10:19;7.40;99.90
8248;DHT22;4164;49.844;8.830;2023-02-16T17:12:47;7.50;99.90
8248;DHT22;4164;49.844;8.830;2023-02-16T17:17:47;7.70;99.90
8248;DHT22;4164;49.844;8.830;2023-02-16T17:20:13;7.80;99.90
8248;DHT22;4164;49.844;8.830;2023-02-16T17:22:39;7.90;99.90
8248;DHT22;4164;49.844;8.830;2023-02-16T17:25:04;8.20;99.90
8248;DHT22;4164;49.844;8.830;2023-02-16T17:27:30;8.30;99.90
8248;DHT22;4164;49.844;8.830;2023-02-16T17:29:55;8.50;99.90
8248;DHT22;4164;49.844;8.830;2023-02-16T17:32:21;8.70;99.90
8248;DHT22;4164;49.844;8.830;2023-02-16T17:34:48;8.70;99.90
8248;DHT22;4164;49.844;8.830;2023-02-16T17:37:14;8.80;99.90
8248;DHT22;4164;49.844;8.830;2023-02-16T17:39:39;8.80;99.90
8248;DHT22;4164;49.844;8.830;2023-02-16T17:42:09;8.80;99.90
8248;DHT22;4164;49.844;8.830;2023-02-16T17:44:35;8.90;99.90
8248;DHT22;4164;49.844;8.830;2023-02-16T17:47:00;8.70;99.90
8248;DHT22;4164;49.844;8.830;2023-02-16T17:49:26;8.70;99.90
8248;DHT22;4164;49.844;8.830;2023-02-16T17:51:53;8.70;99.90
8248;DHT22;4164;49.844;8.830;2023-02-16T17:54:18;8.70;99.90
8248;DHT22;4164;49.844;8.830;2023-02-16T17:56:45;8.80;99.90
8248;DHT22;4164;49.844;8.830;2023-02-16T17:59:12;8.90;99.90
8248;DHT22;4164;49.844;8.830;2023-02-16T18:01:41;9.00;99.90
8248;DHT22;4164;49.844;8.830;2023-02-16T18:04:07;9.00;99.90
8248;DHT22;4164;49.844;8.830;2023-02-16T18:06:32;9.00;99.90
8248;DHT22;4164;49.844;8.830;2023-02-16T18:08:58;9.20;99.90
8248;DHT22;4164;49.844;8.830;2023-02-16T18:11:26;9.30;99.90
8248;DHT22;4164;49.844;8.830;2023-02-16T18:13:52;9.40;99.90
8248;DHT22;4164;49.844;8.830;2023-02-16T18:16:18;9.40;99.90
8248;DHT22;4164;49.844;8.830;2023-02-16T18:18:46;9.30;99.90
8248;DHT22;4164;49.844;8.830;2023-02-16T18:21:12;9.20;99.90
8248;DHT22;4164;49.844;8.830;2023-02-16T18:23:38;9.30;99.90
8248;DHT22;4164;49.844;8.830;2023-02-16T18:26:05;9.30;99.90
8248;DHT22;4164;49.844;8.830;2023-02-16T18:28:33;9.10;99.90
8248;DHT22;4164;49.844;8.830;2023-02-16T18:30:59;9.10;99.90
8248;DHT22;4164;49.844;8.830;2023-02-16T18:33:25;9.10;99.90
8248;DHT22;4164;49.844;8.830;2023-02-16T18:35:53;9.10;99.90
8248;DHT22;4164;49.844;8.830;2023-02-16T18:38:19;9.20;99.90
8248;DHT22;4164;49.844;8.830;2023-02-16T18:40:44;9.30;99.90
8248;DHT22;4164;49.844;8.830;2023-02-16T18:43:11;9.50;99.90
8248;DHT22;4164;49.844;8.830;2023-02-16T18:45:37;9.70;99.90
8248;DHT22;4164;49.844;8.830;2023-02-16T18:48:03;9.80;99.90
8248;DHT22;4164;49.844;8.830;2023-02-16T18:50:29;9.80;99.90
8248;DHT22;4164;49.844;8.830;2023-02-16T18:52:54;9.80;99.90
8248;DHT22;4164;49.844;8.830;2023-02-16T18:55:20;9.80;99.90
8248;DHT22;4164;49.844;8.830;2023-02-16T18:57:45;9.80;99.90
8248;DHT22;4164;49.844;8.830;2023-02-16T19:00:12;9.90;99.90
8248;DHT22;4164;49.844;8.830;2023-02-16T19:02:39;9.80;99.90
8248;DHT22;4164;49.844;8.830;2023-02-16T19:05:06;9.80;99.90
8248;DHT22;4164;49.844;8.830;2023-02-16T19:07:31;9.80;99.90
8248;DHT22;4164;49.844;8.830;2023-02-16T19:09:57;9.80;99.90
8248;DHT22;4164;49.844;8.830;2023-02-16T19:12:22;9.80;99.90